Wednesday, June 20, 2018, 5:07 PM EDT
Back to Local

KPHF, Williamsburg International Airport

Location: Newport News, VA, United States Lat: 37.133
Local Time: 5:07 PM EDT (21:07 GMT) Lon: -76.5
Time Zone: US/Eastern Elev: 42 ft

Show me the last for .
Show Decoded

2018-06-20 16:27 METAR KPHF 202027Z 25007KT 8SM VCTS -RA FEW120 27/23 A2980 RMK AO2 LTG DSNT SW
                 RAB1958 P0000 T02720233 =
2018-06-20 15:54 METAR KPHF 201954Z 10004KT 10SM FEW046 BKN060 OVC100 29/23 A2980 RMK AO2 LTG
                 DSNT SW AND W SLP092 T02940233 =
2018-06-20 14:54 METAR KPHF 201854Z 10009KT 10SM BKN039 30/23 A2982 RMK AO2 SLP097 T03000233 =
2018-06-20 13:54 METAR KPHF 201754Z VRB04KT 10SM SCT035 BKN055 31/22 A2983 RMK AO2 SLP102
                 T03110222 10317 20256 58014 =
2018-06-20 12:54 METAR KPHF 201654Z 00000KT 10SM SCT040 BKN065 31/21 A2986 RMK AO2 SLP109
                 T03110206 =
2018-06-20 11:54 METAR KPHF 201554Z 02004KT 10SM CLR 31/21 A2987 RMK AO2 SLP113 T03060211 =
2018-06-20 10:54 METAR KPHF 201454Z 00000KT 10SM BKN065 29/21 A2988 RMK AO2 SLP116 T02940206
                 50001 =
2018-06-20 09:54 METAR KPHF 201354Z 36004KT 10SM CLR 29/23 A2988 RMK AO2 SLP117 T02890228 =
2018-06-20 08:54 METAR KPHF 201254Z 34003KT 10SM CLR 27/23 A2988 RMK AO2 SLP117 T02720228 =
2018-06-20 07:54 METAR KPHF 201154Z 00000KT 7SM CLR 26/23 A2987 RMK AO2 SLP116 70020 T02560228
                 10256 20239 52010 =
2018-06-20 07:13 METAR KPHF 201113Z 00000KT 5SM BR FEW004 25/23 A2986 RMK AO2 T02500228 =
2018-06-20 07:01 METAR KPHF 201101Z 00000KT 4SM BR CLR 24/23 A2987 RMK AO2 T02440228 =
2018-06-20 06:54 METAR KPHF 201054Z 35003KT 4SM BR BKN006 24/23 A2986 RMK AO2 SLP112 T02440228 =
2018-06-20 06:46 METAR KPHF 201046Z 35003KT 4SM BR BKN006 24/23 A2986 RMK AO2 T02390228 =
2018-06-20 06:39 METAR KPHF 201039Z 00000KT 4SM BR SCT006 24/23 A2986 RMK AO2 T02390228 =
2018-06-20 06:21 METAR KPHF 201021Z 34004KT 3SM BR BKN006 24/23 A2986 RMK AO2 T02390228 =
2018-06-20 06:06 METAR KPHF 201006Z 36003KT 2 1/2SM BR OVC006 24/23 A2986 RMK AO2 T02390228 =
2018-06-20 05:54 METAR KPHF 200954Z AUTO 01003KT 4SM BR OVC006 24/23 A2985 RMK AO2 SLP109
                 T02390228 =
2018-06-20 04:54 METAR KPHF 200854Z AUTO 34004KT 3SM BR OVC002 24/23 A2984 RMK AO2 SLP105
                 T02390228 55003 =
2018-06-20 04:19 METAR KPHF 200819Z AUTO 35004KT 2SM BR OVC003 24/23 A2983 RMK AO2 T02390228 =
2018-06-20 03:54 METAR KPHF 200754Z AUTO 31004KT 5SM BR OVC003 24/23 A2984 RMK AO2 SLP104
                 T02390228 =
2018-06-20 02:54 METAR KPHF 200654Z AUTO 30005KT 6SM BR OVC004 24/23 A2985 RMK AO2 SLP108
                 T02390228 =
2018-06-20 02:33 METAR KPHF 200633Z AUTO 31007KT 7SM OVC004 24/23 A2985 RMK AO2 T02390228 =
2018-06-20 02:15 METAR KPHF 200615Z AUTO 32005KT 9SM BKN006 24/22 A2985 RMK AO2 T02390222 =
2018-06-20 02:06 METAR KPHF 200606Z AUTO 31003KT 10SM SCT006 24/22 A2985 RMK AO2 T02390222 =
2018-06-20 01:54 METAR KPHF 200554Z AUTO 00000KT 10SM CLR 24/23 A2985 RMK AO2 SLP107 60019
                 T02390228 10250 20233 58005 =
2018-06-20 00:54 METAR KPHF 200454Z AUTO 30003KT 10SM CLR 24/22 A2987 RMK AO2 SLP112 T02390222
                 403670233 =
2018-06-20 00:20 METAR KPHF 200420Z AUTO 00000KT 10SM SCT015 24/22 A2986 RMK AO2 T02390222 =
2018-06-19 23:54 METAR KPHF 200354Z AUTO 00000KT 10SM FEW008 BKN015 25/22 A2987 RMK AO2 SLP113
                 T02500222 =
2018-06-19 23:36 METAR KPHF 200336Z AUTO 34004KT 10SM FEW008 24/22 A2987 RMK AO2 T02390222 =
2018-06-19 22:54 METAR KPHF 200254Z AUTO 35003KT 10SM FEW110 24/23 A2986 RMK AO2 RAE54 SLP112
                 P0000 60019 T02440228 53001 =
2018-06-19 21:54 METAR KPHF 200154Z 28006KT 10SM -RA CLR 24/23 A2986 RMK AO2 SLP111 P0001
                 T02440228 =
2018-06-19 20:54 METAR KPHF 200054Z 01005KT 10SM -RA FEW080 SCT095 SCT110 24/23 A2986 RMK AO2
                 TSE04B17E32 SLP110 P0018 T02390228 =
2018-06-19 20:50 METAR KPHF 200050Z AUTO 01004KT 9SM -RA FEW075 FEW095 SCT120 24/23 A2986 RMK AO2
                 TSE04B17E32 P0018 =
2018-06-19 20:38 METAR KPHF 200038Z AUTO 05003KT 7SM VCTS RA FEW070 SCT090 BKN110 24/23 A2986 RMK
                 AO2 TSE04B17E32 P0018 T02390228 =
2018-06-19 20:23 METAR KPHF 200023Z AUTO VRB03KT 4SM TSRA BR SCT044 BKN070 BKN090 24/22 A2986 RMK
                 AO2 TSE04B17 P0017 T02440222 =
2018-06-19 20:15 METAR KPHF 200015Z AUTO 29003KT 3SM RA BR SCT044 BKN060 OVC080 24/22 A2987 RMK
                 AO2 TSE04 P0016 T02390222 =
2018-06-19 20:05 METAR KPHF 200005Z VRB03KT 1 1/2SM +RA BR FEW018 BKN042 OVC055 24/23 A2986 RMK
                 AO2 LTG DSNT SE TSE04 P0013 T02440228 =
2018-06-19 20:01 METAR KPHF 200001Z 30005KT 1 3/4SM +TSRA BR FEW018 BKN044 OVC055 24/22 A2986 RMK
                 AO2 LTG DSNT SE P0009 T02440222 =
2018-06-19 19:54 METAR KPHF 192354Z 30006G15KT 6SM -TSRA FEW020 BKN060 OVC080 25/22 A2987 RMK AO2
                 LTG DSNT ALQDS RAB47 TSB34 SLP113 P0001 60001 T02500217 10367 20250 51036 =
2018-06-19 19:40 METAR KPHF 192340Z 30010KT 10SM TS FEW015 BKN060 26/23 A2987 RMK AO2 LTG DSNT
                 ALQDS TSB34 T02610228 =
2018-06-19 19:08 METAR KPHF 192308Z 04011G22KT 10SM VCTS FEW060 SCT075 SCT085 27/22 A2983 RMK AO2
                 LTG DSNT NW-E T02720222 =
2018-06-19 18:54 METAR KPHF 192254Z 01013G22KT 10SM FEW055 BKN075 BKN090 28/22 A2982 RMK AO2 PK
                 WND 36030/2236 WSHFT 2230 LTG DSNT N-E SLP098 T02830217 =
2018-06-19 18:50 METAR KPHF 192250Z 01013G24KT 10SM FEW055 BKN075 BKN090 28/22 A2982 RMK AO2 PK
                 WND 36030/2236 WSHFT 2230 LTG DSNT N-E =
2018-06-19 17:54 METAR KPHF 192154Z 27006KT 10SM CLR 35/21 A2976 RMK AO2 LTG DSNT N SLP078
                 T03500211 =

Support USWX by starting your Amazon purchase here.